This is the latest recevied weather packets stored in our database for station/object K0APR. If no packets are shown the sender has not sent any weather packets the latest 10 day(s).
| Time | Temp. | Humidity | Pressure | Rain* | Wind** | Luminosity | Snow |
|---|---|---|---|---|---|---|---|
| 1788020544 | 27.22° C | 66% | 1009.8 hPa | 0 mm | - | 248 W/m² | - |
| 1788020232 | 27.22° C | 66% | 1009.5 hPa | 0 mm | - | 229 W/m² | - |
| 1788019928 | 27.78° C | 65% | 1009.5 hPa | 0 mm | - | 297 W/m² | - |
| 1788019622 | 27.22° C | 66% | 1009.5 hPa | 0 mm | - | 445 W/m² | - |
| 1788019322 | 27.78° C | 63% | 1009.8 hPa | 0 mm | - | 551 W/m² | - |
| 1788019020 | 26.67° C | 66% | 1009.8 hPa | 0 mm | - | 668 W/m² | - |
| 1788018714 | 26.67° C | 67% | 1009.5 hPa | 0 mm | - | 259 W/m² | - |
| 1788018414 | 26.67° C | 67% | 1009.5 hPa | 0 mm | - | 275 W/m² | - |
| 1788018109 | 26.67° C | 67% | 1009.5 hPa | 0 mm | - | 318 W/m² | - |
| 1788017806 | 26.67° C | 65% | 1009.8 hPa | 0 mm | - | 284 W/m² | - |
| 1788017502 | 27.22° C | 65% | 1009.5 hPa | 0 mm | - | 615 W/m² | - |
| 1788017199 | 26.67° C | 66% | 1009.8 hPa | 0 mm | - | 565 W/m² | - |
| 1788016898 | 26.11° C | 68% | 1009.8 hPa | 0 mm | - | 526 W/m² | - |
| 1788016596 | 25.56° C | 68% | 1009.8 hPa | 0 mm | - | 474 W/m² | - |
| 1788016291 | 25.56° C | 69% | 1009.8 hPa | 0 mm | - | 249 W/m² | - |
| 1788015990 | 25.56° C | 69% | 1010.2 hPa | 0 mm | - | 219 W/m² | - |
| 1788015686 | 25.56° C | 68% | 1010.2 hPa | 0 mm | - | 453 W/m² | - |
| 1788015385 | 25.56° C | 70% | 1009.8 hPa | 0 mm | - | 377 W/m² | - |
| 1788015080 | 25.56° C | 69% | 1009.8 hPa | 0 mm | - | 184 W/m² | - |
| 1788014778 | 25° C | 70% | 1009.8 hPa | 0 mm | - | 310 W/m² | - |
| 1788014474 | 24.44° C | 72% | 1010.2 hPa | 0 mm | - | 389 W/m² | - |
| 1788014175 | 25° C | 71% | 1009.8 hPa | 0 mm | - | 137 W/m² | - |
| 1788013869 | 24.44° C | 71% | 1009.8 hPa | 0 mm | - | 365 W/m² | - |
| 1788013568 | 23.89° C | 73% | 1009.8 hPa | 0 mm | - | 87 W/m² | - |
| 1788013268 | 23.89° C | 73% | 1009.8 hPa | 0 mm | - | 207 W/m² | - |
* Rain latest hour (hover to see other rain measurements)
** Current wind speed in m/s (hover to see current wind gust speed)